Weather History for Batesville, AR

Change the Weather History Date:

Wednesday, February 27, 2013

  Actual Average Record
Temperature  
Mean Temperature 42 °F -  
Max Temperature 46 °F 58 °F 51 °F (2014)
Min Temperature 37 °F 33 °F 19 °F (2014)
Degree Days  
Heating Degree Days 24    
Moisture  
Dew Point 28 °F    
Average Humidity 63    
Maximum Humidity 75    
Minimum Humidity 50    
Precipitation  
Precipitation 0.00 in - - ()
Sea Level Pressure  
Sea Level Pressure 29.93 in    
Wind  
Wind Speed 10 mph (West)    
Max Wind Speed 17 mph    
Max Gust Speed 23 mph    
Visibility 10 miles    
Events      
Averages and records for this station are not official NWS values.
T = Trace of Precipitation, MM = Missing Value Source: NWS Daily Summary

Daily Weather History Graph

Daily Weather History Graph

Search for Another Location

Airport:

Trip Planner

Search our weather history database for the weather conditions in past years. The results will help you decide how hot, cold, wet, or windy it might be!

Date:

Astronomy

Feb. 27, 2013 Rise Set
Actual Time 6:38 AM CST 6:00 PM CST
Civil Twilight 6:13 AM CST 6:25 PM CST
Nautical Twilight 5:43 AM CST 6:55 PM CST
Astronomical Twilight 5:13 AM CST 7:25 PM CST
Moon 8:15 PM CST (2/27) 7:19 AM CST (2/27)
Length of Visible Light 12h 12m
Length of Day
11h 21m
Waning Gibbous, 96% of the Moon is Illuminated
Feb 27
Waning Gibbous
Mar 4
Last Quarter
Mar 11
New
Mar 19
First Quarter
Mar 27
Full

Hourly Weather History & Observations

Time (CST) Temp. Windchill Dew Point Humidity Pressure Visibility Wind Dir Wind Speed Gust Speed Precip Events Conditions
12:15 AM 39.2 °F 32.5 °F 30.2 °F 70% 29.86 in 10.0 mi West 10.4 mph 20.7 mph N/A   Overcast
12:35 AM 39.2 °F 33.6 °F 28.4 °F 65% 29.85 in 10.0 mi WNW 8.1 mph 17.3 mph N/A   Overcast
12:55 AM 37.4 °F 32.1 °F 28.4 °F 70% 29.83 in 10.0 mi WNW 6.9 mph - N/A   Overcast
1:15 AM 37.4 °F 30.8 °F 30.2 °F 75% 29.83 in 10.0 mi West 9.2 mph - N/A   Overcast
1:35 AM 37.4 °F 30.8 °F 28.4 °F 70% 29.85 in 10.0 mi West 9.2 mph - N/A   Overcast
1:55 AM 37.4 °F 30.8 °F 28.4 °F 70% 29.85 in 10.0 mi West 9.2 mph - N/A   Overcast
2:15 AM 37.4 °F 30.8 °F 28.4 °F 70% 29.85 in 10.0 mi West 9.2 mph - N/A   Overcast
2:35 AM 37.4 °F 30.8 °F 28.4 °F 70% 29.85 in 10.0 mi West 9.2 mph - N/A   Overcast
2:55 AM 37.4 °F 29.8 °F 30.2 °F 75% 29.86 in 10.0 mi West 11.5 mph - N/A   Overcast
3:15 AM 37.4 °F 29.8 °F 28.4 °F 70% 29.86 in 10.0 mi West 11.5 mph 16.1 mph N/A   Overcast
3:35 AM 37.4 °F 27.8 °F 28.4 °F 70% 29.86 in 10.0 mi West 17.3 mph 23.0 mph N/A   Overcast
3:55 AM 37.4 °F 29.3 °F 28.4 °F 70% 29.86 in 10.0 mi West 12.7 mph 18.4 mph N/A   Overcast
4:15 AM 37.4 °F 29.8 °F 28.4 °F 70% 29.86 in 10.0 mi West 11.5 mph 18.4 mph N/A   Overcast
4:35 AM 37.4 °F 30.8 °F 28.4 °F 70% 29.87 in 10.0 mi West 9.2 mph 16.1 mph N/A   Overcast
4:55 AM 37.4 °F 29.8 °F 28.4 °F 70% 29.88 in 10.0 mi West 11.5 mph 19.6 mph N/A   Overcast
5:15 AM 37.4 °F 31.4 °F 28.4 °F 70% 29.89 in 10.0 mi West 8.1 mph - N/A   Overcast
5:35 AM 37.4 °F 30.3 °F 28.4 °F 70% 29.90 in 10.0 mi West 10.4 mph - N/A   Overcast
5:55 AM 37.4 °F 32.1 °F 28.4 °F 70% 29.90 in 10.0 mi WNW 6.9 mph - N/A   Overcast
6:15 AM 37.4 °F 30.8 °F 28.4 °F 70% 29.90 in 10.0 mi West 9.2 mph - N/A   Overcast
6:55 AM 37.4 °F 32.1 °F 28.4 °F 70% 29.91 in 10.0 mi West 6.9 mph - N/A   Overcast
7:15 AM 37.4 °F 30.8 °F 28.4 °F 70% 29.92 in 10.0 mi WNW 9.2 mph - N/A   Overcast
7:35 AM 37.4 °F 32.8 °F 28.4 °F 70% 29.92 in 10.0 mi West 5.8 mph - N/A   Overcast
7:55 AM 37.4 °F 30.8 °F 28.4 °F 70% 29.92 in 10.0 mi WNW 9.2 mph - N/A   Overcast
8:15 AM 37.4 °F 31.4 °F 28.4 °F 70% 29.92 in 10.0 mi WNW 8.1 mph - N/A   Overcast
8:35 AM 37.4 °F 29.8 °F 28.4 °F 70% 29.94 in 10.0 mi WNW 11.5 mph 16.1 mph N/A   Overcast
8:55 AM 37.4 °F 30.3 °F 28.4 °F 70% 29.94 in 10.0 mi West 10.4 mph - N/A   Overcast
9:15 AM 39.2 °F 31.6 °F 30.2 °F 70% 29.93 in 10.0 mi West 12.7 mph - N/A   Overcast
9:35 AM 39.2 °F 31.6 °F 28.4 °F 65% 29.93 in 10.0 mi West 12.7 mph - N/A   Mostly Cloudy
9:55 AM 41.0 °F 33.9 °F 28.4 °F 61% 29.94 in 10.0 mi West 12.7 mph 16.1 mph N/A   Scattered Clouds
10:15 AM 41.0 °F 34.7 °F 30.2 °F 65% 29.95 in 10.0 mi West 10.4 mph - N/A   Mostly Cloudy
10:55 AM 42.8 °F 37.0 °F 30.2 °F 61% 29.96 in 10.0 mi West 10.4 mph 17.3 mph N/A   Overcast
11:15 AM 42.8 °F 37.5 °F 30.2 °F 61% 29.96 in 10.0 mi West 9.2 mph - N/A   Overcast
11:35 AM 42.8 °F 37.5 °F 28.4 °F 57% 29.96 in 10.0 mi West 9.2 mph - N/A   Overcast
11:55 AM 42.8 °F 37.5 °F 30.2 °F 61% 29.96 in 10.0 mi West 9.2 mph 16.1 mph N/A   Overcast
12:15 PM 42.8 °F 36.6 °F 30.2 °F 61% 29.95 in 10.0 mi West 11.5 mph 16.1 mph N/A   Overcast
12:35 PM 42.8 °F 37.0 °F 30.2 °F 61% 29.94 in 10.0 mi West 10.4 mph 18.4 mph N/A   Overcast
12:55 PM 42.8 °F 37.5 °F 30.2 °F 61% 29.93 in 10.0 mi West 9.2 mph 18.4 mph N/A   Overcast
1:15 PM 42.8 °F 37.5 °F 28.4 °F 57% 29.93 in 10.0 mi West 9.2 mph 17.3 mph N/A   Overcast
1:35 PM 44.6 °F 37.4 °F 30.2 °F 57% 29.93 in 10.0 mi West 16.1 mph 20.7 mph N/A   Overcast
1:55 PM 44.6 °F 38.8 °F 30.2 °F 57% 29.93 in 10.0 mi West 11.5 mph 21.9 mph N/A   Overcast
2:15 PM 44.6 °F 39.7 °F 30.2 °F 57% 29.93 in 10.0 mi WNW 9.2 mph 17.3 mph N/A   Overcast
2:35 PM 44.6 °F 39.7 °F 28.4 °F 53% 29.94 in 10.0 mi West 9.2 mph 17.3 mph N/A   Overcast
2:55 PM 44.6 °F 38.4 °F 28.4 °F 53% 29.94 in 10.0 mi West 12.7 mph 17.3 mph N/A   Overcast
3:15 PM 44.6 °F 39.7 °F 30.2 °F 57% 29.95 in 10.0 mi West 9.2 mph - N/A   Overcast
3:35 PM 46.4 °F 41.5 °F 30.2 °F 53% 29.94 in 10.0 mi West 10.4 mph - N/A   Overcast
3:55 PM 44.6 °F 39.2 °F 28.4 °F 53% 29.94 in 10.0 mi West 10.4 mph - N/A   Overcast
4:15 PM 46.4 °F 41.9 °F 30.2 °F 53% 29.94 in 10.0 mi West 9.2 mph 19.6 mph N/A   Scattered Clouds
4:35 PM 46.4 °F 40.4 °F 28.4 °F 50% 29.94 in 10.0 mi West 13.8 mph 19.6 mph N/A   Mostly Cloudy
4:55 PM 46.4 °F 42.4 °F 28.4 °F 50% 29.95 in 10.0 mi West 8.1 mph 20.7 mph N/A   Overcast
5:15 PM 44.6 °F 40.2 °F 28.4 °F 53% 29.96 in 10.0 mi WNW 8.1 mph - N/A   Overcast
5:35 PM 44.6 °F 39.7 °F 28.4 °F 53% 29.97 in 10.0 mi WNW 9.2 mph 20.7 mph N/A   Mostly Cloudy
5:55 PM 42.8 °F 37.0 °F 26.6 °F 53% 29.97 in 10.0 mi West 10.4 mph 20.7 mph N/A   Scattered Clouds
6:15 PM 42.8 °F 36.2 °F 26.6 °F 53% 29.98 in 10.0 mi West 12.7 mph 20.7 mph N/A   Clear
6:35 PM 42.8 °F 36.6 °F 28.4 °F 57% 29.98 in 10.0 mi West 11.5 mph - N/A   Clear
6:55 PM 41.0 °F 34.3 °F 26.6 °F 57% 29.99 in 10.0 mi West 11.5 mph 19.6 mph N/A   Partly Cloudy
7:15 PM 41.0 °F 34.7 °F 26.6 °F 57% 29.99 in 10.0 mi West 10.4 mph 17.3 mph N/A   Mostly Cloudy
7:35 PM 41.0 °F 35.2 °F 26.6 °F 57% 30.00 in 10.0 mi West 9.2 mph - N/A   Mostly Cloudy
8:15 PM 41.0 °F 35.8 °F 26.6 °F 57% 30.00 in 10.0 mi West 8.1 mph - N/A   Overcast
8:35 PM 41.0 °F 35.8 °F 26.6 °F 57% 30.01 in 10.0 mi WNW 8.1 mph 16.1 mph N/A   Overcast
8:55 PM 39.2 °F 33.0 °F 26.6 °F 61% 30.02 in 10.0 mi WNW 9.2 mph 16.1 mph N/A   Overcast
9:15 PM 39.2 °F 33.0 °F 26.6 °F 61% 30.02 in 10.0 mi WNW 9.2 mph 20.7 mph N/A   Overcast
9:35 PM 39.2 °F 32.0 °F 26.6 °F 61% 30.02 in 10.0 mi WNW 11.5 mph 20.7 mph N/A   Overcast
9:55 PM 37.4 °F 31.4 °F 24.8 °F 60% 30.02 in 10.0 mi WNW 8.1 mph 18.4 mph N/A   Overcast
10:35 PM 37.4 °F 30.8 °F 24.8 °F 60% 30.02 in 10.0 mi WNW 9.2 mph 19.6 mph N/A   Overcast
10:55 PM 37.4 °F 31.4 °F 26.6 °F 65% 30.02 in 10.0 mi WNW 8.1 mph 20.7 mph N/A   Overcast
11:15 PM 37.4 °F 32.1 °F 26.6 °F 65% 30.02 in 10.0 mi West 6.9 mph - N/A   Overcast
11:35 PM 37.4 °F 32.1 °F 26.6 °F 65% 30.01 in 10.0 mi West 6.9 mph - N/A   Overcast
11:55 PM 37.4 °F 31.4 °F 24.8 °F 60% 30.01 in 10.0 mi West 8.1 mph - N/A   Overcast